Time;durP1;ratioP1;P1;durP2;ratioP2;P2;SDS_P1;SDS_P2;PMS_P1;PMS_P2;Temp;Humidity;BMP_temperature;BMP_pressure;BME280_temperature;BME280_humidity;BME280_pressure;Samples;Min_cycle;Max_cycle;Signal;HPM_P1;HPM_P2
2023/03/22 00:01:31;;;;;;;21.52;15.10;;;;;;;8.90;100.00;100778.69;4965664;28;20054;-77
2023/03/22 00:03:58;;;;;;;19.88;15.20;;;;;;;8.91;100.00;100778.69;4962905;28;20054;-77
2023/03/22 00:06:26;;;;;;;22.95;15.40;;;;;;;8.92;100.00;100772.59;4982323;28;20077;-78
2023/03/22 00:08:54;;;;;;;19.10;13.40;;;;;;;8.94;100.00;100770.84;4956269;28;20054;-78
2023/03/22 00:11:25;;;;;;;20.80;14.90;;;;;;;8.96;100.00;100770.88;4950957;28;20051;-77
2023/03/22 00:13:53;;;;;;;17.25;13.50;;;;;;;8.96;100.00;100769.13;4975732;28;20420;-78
2023/03/22 00:16:21;;;;;;;21.45;13.20;;;;;;;8.98;100.00;100759.50;4916161;28;20073;-78
2023/03/22 00:18:48;;;;;;;19.52;12.10;;;;;;;8.98;100.00;100754.25;4970918;28;20050;-77
2023/03/22 00:21:16;;;;;;;19.67;11.00;;;;;;;8.98;100.00;100763.88;4986873;28;20051;-78
2023/03/22 00:23:44;;;;;;;16.23;10.95;;;;;;;8.97;100.00;100757.72;4991102;28;20061;-77
2023/03/22 00:26:13;;;;;;;14.18;10.23;;;;;;;8.96;100.00;100755.09;4973155;28;20046;-77
2023/03/22 00:28:42;;;;;;;20.17;10.55;;;;;;;8.95;100.00;100754.19;4974714;28;20054;-77
2023/03/22 00:31:09;;;;;;;17.55;10.02;;;;;;;8.97;100.00;100755.09;4953050;28;20047;-77
2023/03/22 00:33:37;;;;;;;19.50;10.40;;;;;;;8.97;100.00;100751.59;4977193;28;20094;-77
2023/03/22 00:36:10;;;;;;;16.17;11.10;;;;;;;8.96;100.00;100755.97;4993470;28;20053;-77
2023/03/22 00:38:38;;;;;;;20.55;10.50;;;;;;;8.96;100.00;100750.72;4972413;28;20046;-77
2023/03/22 00:41:16;;;;;;;19.88;10.98;;;;;;;8.96;100.00;100749.84;4967702;28;20061;-77
2023/03/22 00:43:45;;;;;;;14.45;8.95;;;;;;;8.96;100.00;100740.22;4976880;28;20065;-77
2023/03/22 00:46:13;;;;;;;15.63;10.18;;;;;;;8.97;100.00;100741.94;4993148;28;20070;-77
2023/03/22 00:48:44;;;;;;;14.32;9.32;;;;;;;8.98;100.00;100743.72;4942126;28;20051;-77
2023/03/22 00:51:13;;;;;;;16.67;9.77;;;;;;;8.97;100.00;100734.06;4976614;28;20082;-77
2023/03/22 00:53:41;;;;;;;15.32;9.05;;;;;;;8.95;100.00;100733.19;5008712;28;20066;-77
2023/03/22 00:56:14;;;;;;;14.73;8.80;;;;;;;8.94;100.00;100739.31;4991351;28;20051;-77
2023/03/22 00:58:47;;;;;;;21.13;8.25;;;;;;;8.94;100.00;100739.31;5001304;28;20051;-77
2023/03/22 01:01:15;;;;;;;17.75;8.80;;;;;;;8.92;100.00;100734.91;4969434;28;20049;-77
2023/03/22 01:03:43;;;;;;;20.15;8.63;;;;;;;8.90;100.00;100727.03;4931566;28;20046;-77
2023/03/22 01:06:14;;;;;;;13.23;7.85;;;;;;;8.87;100.00;100713.84;4986036;28;20058;-77
2023/03/22 01:08:42;;;;;;;14.10;7.78;;;;;;;8.88;100.00;100731.34;4993471;28;20062;-77
2023/03/22 01:11:09;;;;;;;15.02;7.85;;;;;;;8.86;100.00;100722.59;4975688;28;20439;-77
2023/03/22 01:13:38;;;;;;;15.90;7.82;;;;;;;8.84;100.00;100713.81;5008666;28;20050;-77
2023/03/22 01:16:06;;;;;;;9.52;6.50;;;;;;;8.83;100.00;100712.06;4995320;28;20061;-77
2023/03/22 01:18:35;;;;;;;16.15;7.38;;;;;;;8.82;100.00;100710.28;4962724;28;20053;-77
2023/03/22 01:21:02;;;;;;;17.33;7.10;;;;;;;8.81;100.00;100710.28;4974674;28;20054;-77
2023/03/22 01:23:30;;;;;;;11.60;6.00;;;;;;;8.80;100.00;100712.03;4997067;28;20046;-78
2023/03/22 01:25:58;;;;;;;12.68;6.60;;;;;;;8.78;100.00;100704.13;5007305;28;20054;-77
2023/03/22 01:28:26;;;;;;;10.43;6.20;;;;;;;8.77;100.00;100701.47;4955868;28;20058;-77
2023/03/22 01:30:54;;;;;;;11.20;6.05;;;;;;;8.76;100.00;100699.75;4994180;28;20481;-77
2023/03/22 01:33:22;;;;;;;11.85;5.70;;;;;;;8.76;100.00;100705.00;4999044;28;20061;-77
2023/03/22 01:35:50;;;;;;;8.70;5.35;;;;;;;8.74;100.00;100697.09;4920211;28;20507;-77
2023/03/22 01:38:19;;;;;;;8.32;4.72;;;;;;;8.75;100.00;100700.59;4958208;28;20054;-77
2023/03/22 01:40:55;;;;;;;13.07;6.05;;;;;;;8.74;100.00;100690.97;4998406;28;20050;-77
2023/03/22 01:43:23;;;;;;;13.02;5.82;;;;;;;8.72;100.00;100692.72;5009530;28;20058;-78
2023/03/22 01:45:52;;;;;;;15.77;5.90;;;;;;;8.71;100.00;100694.44;4971505;28;20042;-77
2023/03/22 01:48:44;;;;;;;9.70;5.38;;;;;;;8.71;100.00;100683.91;4978411;28;20042;-77
2023/03/22 01:51:26;;;;;;;11.05;5.53;;;;;;;8.70;100.00;100690.06;4935054;28;20683;-78
2023/03/22 01:54:41;;;;;;;7.57;4.40;;;;;;;8.69;100.00;100679.53;4986097;28;20059;-78
2023/03/22 01:57:28;;;;;;;10.15;4.90;;;;;;;8.68;100.00;100676.03;5000425;28;20049;-78
2023/03/22 01:59:59;;;;;;;9.23;4.50;;;;;;;8.67;100.00;100674.25;4973082;28;20369;-78
2023/03/22 02:02:53;;;;;;;8.68;3.97;;;;;;;8.66;100.00;100671.63;4986110;28;20050;-78
2023/03/22 02:05:27;;;;;;;9.07;4.10;;;;;;;8.64;100.00;100668.09;4951875;28;20046;-78
2023/03/22 02:07:59;;;;;;;10.23;4.18;;;;;;;8.63;100.00;100661.97;5008526;28;20083;-78
2023/03/22 02:10:35;;;;;;;12.30;4.43;;;;;;;8.64;100.00;100665.47;4990424;28;20358;-78
2023/03/22 02:13:25;;;;;;;12.27;4.18;;;;;;;8.62;100.00;100654.06;4991994;28;20412;-78
2023/03/22 02:16:22;;;;;;;9.77;3.78;;;;;;;8.62;100.00;100660.25;5004706;28;20274;-77
2023/03/22 02:19:00;;;;;;;;;;;;;;;8.61;100.00;100658.47;4972964;28;20058;-77
2023/03/22 02:21:44;;;;;;;6.47;3.15;;;;;;;8.61;100.00;100644.47;4946210;28;20364;-77
2023/03/22 02:24:44;;;;;;;6.68;3.30;;;;;;;8.61;100.00;100657.59;4991257;28;20436;-78
2023/03/22 02:27:15;;;;;;;8.13;3.53;;;;;;;8.59;100.00;100649.69;4978053;28;20051;-77
2023/03/22 02:29:54;;;;;;;9.18;3.75;;;;;;;8.59;100.00;100654.94;4978859;28;20054;-77
2023/03/22 02:32:43;;;;;;;7.00;3.00;;;;;;;8.59;100.00;100650.56;4987683;28;20046;-77
2023/03/22 02:35:30;;;;;;;7.50;3.30;;;;;;;8.58;100.00;100643.56;5016733;28;20057;-77
2023/03/22 02:38:15;;;;;;;7.95;3.22;;;;;;;8.57;100.00;100631.28;4971511;28;20389;-78
2023/03/22 02:41:09;;;;;;;8.98;2.80;;;;;;;8.58;100.00;100648.81;5010713;28;20047;-77
2023/03/22 02:43:50;;;;;;;4.88;2.67;;;;;;;8.57;100.00;100640.91;4982280;28;20062;-78
2023/03/22 02:46:23;;;;;;;6.80;3.00;;;;;;;8.57;100.00;100633.03;4988630;28;20069;-77
2023/03/22 02:49:09;;;;;;;8.82;2.35;;;;;;;8.58;100.00;100632.16;5006152;28;20050;-77
2023/03/22 02:51:47;;;;;;;5.68;2.65;;;;;;;8.57;100.00;100636.53;5005609;28;20035;-78
2023/03/22 02:54:25;;;;;;;8.70;2.90;;;;;;;8.57;100.00;100639.16;4959301;28;20055;-77
2023/03/22 02:57:16;;;;;;;9.15;2.47;;;;;;;8.57;100.00;100626.03;4998861;28;20046;-77
2023/03/22 02:59:45;;;;;;;6.38;2.58;;;;;;;8.58;100.00;100626.91;4972814;28;20054;-77
2023/03/22 03:02:18;;;;;;;10.68;2.60;;;;;;;8.58;100.00;100622.56;5002771;28;20049;-77
2023/03/22 03:04:48;;;;;;;7.70;2.92;;;;;;;8.58;100.00;100617.31;4989206;28;20058;-77
2023/03/22 03:07:21;;;;;;;10.00;2.90;;;;;;;8.60;100.00;100622.56;4984455;28;20050;-77
2023/03/22 03:09:50;;;;;;;13.02;4.50;;;;;;;8.61;100.00;100618.19;4967226;28;20046;-77
2023/03/22 03:12:25;;;;;;;9.65;2.83;;;;;;;8.61;100.00;100626.06;4984420;28;20043;-77
2023/03/22 03:14:55;;;;;;;8.82;2.30;;;;;;;8.61;100.00;100629.56;4979828;28;20059;-77
2023/03/22 03:17:52;;;;;;;6.55;2.80;;;;;;;8.61;100.00;100615.56;5004410;28;20047;-78
2023/03/22 03:20:29;;;;;;;8.55;2.85;;;;;;;8.60;100.00;100612.06;4997571;28;20047;-77
2023/03/22 03:23:12;;;;;;;7.75;3.05;;;;;;;8.60;100.00;100612.06;5007424;28;20047;-77
2023/03/22 03:26:16;;;;;;;7.75;2.55;;;;;;;8.61;100.00;100599.81;4984039;28;20077;-77
2023/03/22 03:28:55;;;;;;;12.52;3.63;;;;;;;8.60;100.00;100601.56;5005771;28;20388;-77
2023/03/22 03:31:35;;;;;;;9.00;2.25;;;;;;;8.59;100.00;100599.78;4988637;28;20051;-77
2023/03/22 03:34:12;;;;;;;8.25;3.20;;;;;;;8.58;100.00;100592.75;5004370;28;20058;-78
2023/03/22 03:36:46;;;;;;;10.32;3.15;;;;;;;8.58;100.00;100590.13;4987046;28;20057;-78
2023/03/22 03:39:16;;;;;;;10.55;2.20;;;;;;;8.57;100.00;100588.41;4974442;28;20077;-76
2023/03/22 03:41:47;;;;;;;8.13;2.35;;;;;;;8.58;100.00;100587.50;4981230;28;20047;-77
2023/03/22 03:44:15;;;;;;;;;;;;;;;8.57;100.00;100586.63;4997926;28;20071;-77
2023/03/22 03:46:45;;;;;;;4.78;1.95;;;;;;;8.58;100.00;100580.53;4989316;28;19990;-76
2023/03/22 03:49:14;;;;;;;8.30;2.10;;;;;;;8.59;100.00;100577.03;4974314;28;20058;-78
2023/03/22 03:51:54;;;;;;;7.05;2.83;;;;;;;8.61;100.00;100576.16;4985327;28;20042;-79
2023/03/22 03:54:22;;;;;;;7.32;2.42;;;;;;;8.60;100.00;100570.03;5000693;28;20050;-76
2023/03/22 03:56:50;;;;;;;7.60;2.28;;;;;;;8.59;100.00;100569.13;4943862;28;20062;-78
2023/03/22 03:59:19;;;;;;;4.75;2.00;;;;;;;8.59;100.00;100569.13;4963321;28;20042;-76
2023/03/22 04:01:50;;;;;;;7.18;2.30;;;;;;;8.61;100.00;100570.91;4951275;28;20061;-77
2023/03/22 04:04:27;;;;;;;9.45;2.63;;;;;;;8.61;100.00;100557.78;4977065;28;20051;-76
2023/03/22 04:07:03;;;;;;;7.97;3.03;;;;;;;8.61;100.00;100574.41;4981195;28;20058;-78
2023/03/22 04:09:37;;;;;;;7.28;2.80;;;;;;;8.59;100.00;100563.88;4967739;28;20043;-78
2023/03/22 04:12:18;;;;;;;11.75;2.53;;;;;;;8.61;100.00;100563.91;4945574;28;20046;-78
2023/03/22 04:15:06;;;;;;;6.97;2.33;;;;;;;8.61;100.00;100566.53;4972965;28;20047;-78
2023/03/22 04:17:34;;;;;;;10.82;3.30;;;;;;;8.61;100.00;100563.03;4980789;28;20417;-78
2023/03/22 04:20:04;;;;;;;9.10;2.78;;;;;;;8.59;100.00;100558.63;4990044;28;20047;-79
2023/03/22 04:22:33;;;;;;;9.90;2.47;;;;;;;8.61;100.00;100557.78;4980331;28;20050;-76
2023/03/22 04:25:10;;;;;;;9.55;2.83;;;;;;;8.61;100.00;100563.03;5001811;28;20046;-76
2023/03/22 04:27:42;;;;;;;;;;;;;;;8.58;100.00;100554.28;4973222;28;20046;-77
2023/03/22 04:30:21;;;;;;;12.85;3.50;;;;;;;8.58;100.00;100551.63;4970030;28;19925;-78
2023/03/22 04:33:00;;;;;;;11.60;3.40;;;;;;;8.57;100.00;100549.88;5006101;28;20047;-79
2023/03/22 04:35:45;;;;;;;14.70;3.50;;;;;;;8.57;100.00;100552.50;4969383;28;20079;-78
2023/03/22 04:38:14;;;;;;;12.48;4.20;;;;;;;8.57;100.00;100546.38;4982155;28;20135;-78
2023/03/22 04:40:45;;;;;;;8.90;2.70;;;;;;;8.57;100.00;100546.38;4995312;28;20055;-78
2023/03/22 04:43:21;;;;;;;10.05;3.28;;;;;;;8.56;100.00;100539.34;4934080;28;20043;-76
2023/03/22 04:45:56;;;;;;;12.40;3.47;;;;;;;8.57;100.00;100554.25;4952543;28;20408;-79
2023/03/22 04:48:30;;;;;;;13.00;2.83;;;;;;;8.56;100.00;100550.75;4990512;28;20046;-78
2023/03/22 04:51:02;;;;;;;11.10;3.70;;;;;;;8.56;100.00;100541.97;4955190;28;20057;-78
2023/03/22 04:53:39;;;;;;;11.73;3.47;;;;;;;8.56;100.00;100535.00;4963361;28;20369;-78
2023/03/22 04:56:11;;;;;;;9.43;3.17;;;;;;;8.55;100.00;100535.84;4991256;28;20054;-78
2023/03/22 04:58:41;;;;;;;11.05;3.03;;;;;;;8.54;100.00;100528.84;4974089;28;21086;-78
2023/03/22 05:01:11;;;;;;;6.00;2.70;;;;;;;8.55;100.00;100538.47;4997232;28;20054;-77
2023/03/22 05:03:44;;;;;;;11.93;4.20;;;;;;;8.55;100.00;100527.09;4973538;28;20059;-77
2023/03/22 05:06:12;;;;;;;9.60;2.83;;;;;;;8.56;100.00;100536.72;4999094;28;20058;-77
2023/03/22 05:08:49;;;;;;;10.50;3.72;;;;;;;8.56;100.00;100524.50;4962138;28;20073;-77
2023/03/22 05:11:20;;;;;;;13.90;3.80;;;;;;;8.56;100.00;100534.09;5014118;28;20531;-78
2023/03/22 05:14:03;;;;;;;9.57;3.65;;;;;;;8.56;100.00;100513.97;4964948;28;20055;-77
2023/03/22 05:16:31;;;;;;;9.52;3.65;;;;;;;8.57;100.00;100525.34;4993036;28;20555;-77
2023/03/22 05:19:01;;;;;;;9.32;3.80;;;;;;;8.56;100.00;100510.47;4989592;28;20054;-77
2023/03/22 05:21:35;;;;;;;7.63;3.90;;;;;;;8.57;100.00;100514.84;4996880;28;20412;-78
2023/03/22 05:24:04;;;;;;;9.98;4.38;;;;;;;8.57;100.00;100509.59;4989793;28;20055;-78
2023/03/22 05:26:32;;;;;;;15.20;5.03;;;;;;;8.57;100.00;100505.22;4968820;28;20046;-78
2023/03/22 05:29:00;;;;;;;13.45;5.28;;;;;;;8.57;100.00;100499.09;4983900;28;20058;-77
2023/03/22 05:31:43;;;;;;;7.50;4.95;;;;;;;8.57;100.00;100492.09;4982624;28;20054;-78
2023/03/22 05:34:12;;;;;;;8.65;5.38;;;;;;;8.58;100.00;100482.44;4985986;28;20062;-78
2023/03/22 05:36:41;;;;;;;10.23;5.35;;;;;;;8.58;100.00;100483.34;4972240;28;20050;-77
2023/03/22 05:39:41;;;;;;;9.52;6.57;;;;;;;8.59;100.00;100473.72;4991083;28;20069;-77
2023/03/22 05:42:09;;;;;;;12.77;5.65;;;;;;;8.59;100.00;100482.47;4986722;28;20042;-78
2023/03/22 05:44:37;;;;;;;14.32;6.38;;;;;;;8.61;100.00;100478.97;4955011;28;20077;-78
2023/03/22 05:47:08;;;;;;;10.77;6.55;;;;;;;8.61;100.00;100469.34;4928964;28;20416;-78
2023/03/22 05:49:48;;;;;;;14.57;6.73;;;;;;;8.62;100.00;100472.84;4979315;28;20054;-78
2023/03/22 05:52:16;;;;;;;12.85;6.93;;;;;;;8.64;100.00;100460.59;4965195;28;20046;-78
2023/03/22 05:54:50;;;;;;;12.07;7.22;;;;;;;8.65;100.00;100470.25;4968758;28;21447;-78
2023/03/22 05:57:19;;;;;;;12.05;7.30;;;;;;;8.67;100.00;100471.13;5002975;28;20680;-78
2023/03/22 05:59:47;;;;;;;12.27;7.75;;;;;;;8.68;100.00;100465.03;4996647;28;20059;-78
2023/03/22 06:02:22;;;;;;;13.02;7.45;;;;;;;8.70;100.00;100465.91;4940773;28;20042;-77
2023/03/22 06:04:50;;;;;;;15.25;8.10;;;;;;;8.70;100.00;100453.63;4932504;28;20055;-77
2023/03/22 06:07:19;;;;;;;14.77;8.10;;;;;;;8.72;100.00;100458.91;4994163;28;20692;-78
2023/03/22 06:09:52;;;;;;;13.95;8.63;;;;;;;8.74;100.00;100462.41;4945316;28;20047;-78
2023/03/22 06:12:26;;;;;;;14.30;8.25;;;;;;;8.77;100.00;100465.94;4943153;28;20038;-79
2023/03/22 06:15:03;;;;;;;14.30;8.70;;;;;;;8.81;100.00;100465.94;4985862;28;20058;-77
2023/03/22 06:17:49;;;;;;;17.85;8.68;;;;;;;8.83;100.00;100449.31;4938778;28;20057;-76
2023/03/22 06:20:21;;;;;;;14.23;9.32;;;;;;;8.86;100.00;100456.31;4967036;28;20066;-77
2023/03/22 06:22:55;;;;;;;15.75;8.30;;;;;;;8.88;100.00;100452.81;4976282;28;20054;-76
2023/03/22 06:25:23;;;;;;;15.73;9.05;;;;;;;8.92;100.00;100441.47;4967161;28;20042;-77
2023/03/22 06:27:51;;;;;;;20.42;9.73;;;;;;;8.93;100.00;100440.59;4994771;28;20055;-77
2023/03/22 06:30:19;;;;;;;15.57;9.90;;;;;;;8.96;100.00;100445.00;4988100;28;20161;-77
2023/03/22 06:33:07;;;;;;;17.23;9.30;;;;;;;9.00;100.00;100440.59;4957650;28;20061;-77
2023/03/22 06:39:36;;;;;;;14.13;9.02;;;;;;;9.11;100.00;100439.78;4999680;28;20531;-77
2023/03/22 06:42:03;;;;;;;16.80;8.73;;;;;;;9.16;100.00;100435.38;4966498;28;20566;-77
2023/03/22 06:44:30;;;;;;;13.05;8.70;;;;;;;9.23;100.00;100438.91;4987016;28;20057;-77
2023/03/22 06:47:13;;;;;;;14.25;8.73;;;;;;;9.28;100.00;100439.81;4948468;28;20046;-77
2023/03/22 06:49:51;;;;;;;16.42;9.50;;;;;;;9.33;100.00;100430.16;4984164;28;20482;-77
2023/03/22 06:52:23;;;;;;;16.63;9.07;;;;;;;9.38;100.00;100429.31;4998532;28;20057;-77
2023/03/22 06:54:51;;;;;;;20.73;9.68;;;;;;;9.43;100.00;100425.78;4981364;28;20058;-77
2023/03/22 06:57:19;;;;;;;11.80;7.65;;;;;;;9.47;100.00;100432.84;4986019;28;20905;-77
2023/03/22 06:59:46;;;;;;;17.35;9.88;;;;;;;9.52;100.00;100435.44;4974198;28;20484;-76
2023/03/22 07:02:13;;;;;;;11.77;8.85;;;;;;;9.56;100.00;100437.19;4927555;28;20072;-76
2023/03/22 07:04:56;;;;;;;14.32;8.13;;;;;;;9.61;100.00;100434.59;5007501;28;20088;-76
2023/03/22 07:07:24;;;;;;;13.02;9.05;;;;;;;9.64;100.00;100431.94;4967632;28;20054;-77
2023/03/22 07:09:52;;;;;;;14.18;8.52;;;;;;;9.65;100.00;100426.69;4969528;28;20046;-77
2023/03/22 07:12:19;;;;;;;19.40;10.38;;;;;;;9.67;100.00;100426.69;4985457;28;20045;-76
2023/03/22 07:14:47;;;;;;;19.38;8.45;;;;;;;9.69;100.00;100431.06;4974153;28;20710;-76
2023/03/22 07:17:25;;;;;;;16.15;8.98;;;;;;;9.70;100.00;100430.22;4940357;28;20615;-76
2023/03/22 07:19:52;;;;;;;17.63;9.13;;;;;;;9.73;100.00;100424.94;4987754;28;20077;-76
2023/03/22 07:22:23;;;;;;;13.40;8.77;;;;;;;9.78;100.00;100417.03;4977355;28;20177;-76
2023/03/22 07:24:52;;;;;;;13.65;8.63;;;;;;;9.82;100.00;100431.94;4987879;28;20077;-76
2023/03/22 07:27:27;;;;;;;14.10;9.65;;;;;;;9.87;100.00;100429.34;4970534;28;20065;-76
2023/03/22 07:29:59;;;;;;;14.50;8.93;;;;;;;9.89;100.00;100431.06;4974367;28;20058;-76
2023/03/22 07:32:28;;;;;;;13.30;9.07;;;;;;;9.90;100.00;100422.28;4947492;28;20054;-77
2023/03/22 07:35:05;;;;;;;13.25;8.88;;;;;;;9.90;100.00;100417.03;4979306;28;20065;-76
2023/03/22 07:37:32;;;;;;;14.00;8.50;;;;;;;9.90;100.00;100411.75;4967305;28;20075;-76
2023/03/22 07:40:03;;;;;;;15.50;9.00;;;;;;;9.89;100.00;100414.41;4972264;28;20046;-76
2023/03/22 07:42:36;;;;;;;11.30;7.82;;;;;;;9.88;100.00;100420.53;4972762;28;20053;-76
2023/03/22 07:45:19;;;;;;;15.30;7.80;;;;;;;9.88;100.00;100424.03;4975945;28;20061;-76
2023/03/22 07:48:22;;;;;;;16.65;8.52;;;;;;;9.85;100.00;100408.28;4971180;28;20038;-76
2023/03/22 07:51:04;;;;;;;19.17;8.93;;;;;;;9.87;100.00;100418.81;4986197;28;20072;-76
2023/03/22 07:53:35;;;;;;;13.52;7.90;;;;;;;9.88;100.00;100412.66;4983546;28;20039;-75
2023/03/22 08:19:22;;;;;;;14.23;7.75;;;;;;;10.14;100.00;100417.88;5030931;27;1316757;-76
2023/03/22 08:21:50;;;;;;;11.50;6.28;;;;;;;10.14;100.00;100389.78;5099770;28;20055;-76
2023/03/22 08:24:40;;;;;;;12.50;6.60;;;;;;;10.21;100.00;100390.66;5084432;28;20052;-76
2023/03/22 08:27:13;;;;;;;10.32;6.55;;;;;;;10.30;100.00;100401.22;5056258;28;20055;-77
2023/03/22 08:29:47;;;;;;;9.82;6.90;;;;;;;10.38;100.00;100393.28;5067847;28;20043;-76
2023/03/22 08:32:16;;;;;;;10.98;6.47;;;;;;;10.45;100.00;100409.91;5090566;28;20827;-77
2023/03/22 08:34:44;;;;;;;12.90;6.05;;;;;;;10.49;100.00;100406.38;5081396;28;20122;-76
2023/03/22 08:37:11;;;;;;;16.00;6.25;;;;;;;10.50;100.00;100410.78;5081176;28;20044;-76
2023/03/22 08:39:42;;;;;;;13.57;6.10;;;;;;;10.50;100.00;100400.25;5076212;28;20056;-78
2023/03/22 08:42:22;;;;;;;12.75;6.47;;;;;;;10.45;100.00;100400.28;5059185;28;20055;-77
2023/03/22 08:44:51;;;;;;;11.13;6.78;;;;;;;10.43;100.00;100394.13;5084459;28;20074;-77
2023/03/22 08:47:21;;;;;;;11.85;5.82;;;;;;;10.43;100.00;100396.75;5096106;28;20036;-78
2023/03/22 08:49:53;;;;;;;12.63;4.85;;;;;;;10.43;100.00;100383.59;5076314;28;20528;-77
2023/03/22 08:52:31;;;;;;;8.43;6.00;;;;;;;10.44;100.00;100389.75;5078481;28;20044;-77
2023/03/22 08:55:07;;;;;;;10.43;4.95;;;;;;;10.42;100.00;100389.75;5057327;28;20494;-77
2023/03/22 08:57:57;;;;;;;11.55;5.47;;;;;;;10.46;100.00;100380.94;5067228;28;20414;-77
2023/03/22 09:00:32;;;;;;;7.07;4.70;;;;;;;10.51;100.00;100381.81;5097616;28;20040;-77
2023/03/22 09:03:29;;;;;;;8.18;4.70;;;;;;;10.60;100.00;100395.81;5096531;28;20047;-77
2023/03/22 09:05:57;;;;;;;11.60;4.78;;;;;;;10.63;100.00;100395.81;5068581;28;20532;-77
2023/03/22 09:08:29;;;;;;;;;;;;;;;10.64;100.00;100400.19;5081353;28;20050;-77
2023/03/22 09:11:08;;;;;;;12.32;5.57;;;;;;;10.66;100.00;100383.50;5063686;28;19924;-77
2023/03/22 09:13:36;;;;;;;12.10;4.90;;;;;;;10.69;100.00;100380.84;5036583;28;20059;-77
2023/03/22 09:16:07;;;;;;;8.27;4.22;;;;;;;10.76;100.00;100379.06;5094047;28;20048;-77
2023/03/22 09:18:36;;;;;;;8.80;4.05;;;;;;;10.82;100.00;100378.16;5094300;28;20055;-77
2023/03/22 09:21:10;;;;;;;9.55;4.20;;;;;;;10.86;100.00;100382.53;5035374;28;20153;-76
2023/03/22 09:24:02;;;;;;;7.93;4.28;;;;;;;10.88;100.00;100378.97;5082584;28;20062;-76
2023/03/22 09:26:39;;;;;;;8.48;3.85;;;;;;;10.91;100.00;100376.34;5018243;28;20048;-76
2023/03/22 09:29:06;;;;;;;10.45;4.50;;;;;;;10.92;100.00;100364.91;5016109;28;20048;-76
2023/03/22 09:31:34;;;;;;;11.98;4.15;;;;;;;10.93;100.00;100369.31;5066461;28;20044;-77
2023/03/22 09:34:15;;;;;;;9.48;4.53;;;;;;;10.93;100.00;100371.94;5083829;28;20048;-77
2023/03/22 09:36:42;;;;;;;12.95;4.72;;;;;;;10.92;100.00;100372.81;5080876;28;20529;-77
2023/03/22 09:39:11;;;;;;;9.07;4.18;;;;;;;10.89;100.00;100383.38;5083702;28;20051;-77
2023/03/22 09:41:45;;;;;;;9.57;3.63;;;;;;;10.88;100.00;100371.06;5040021;28;20051;-77
2023/03/22 09:44:21;;;;;;;8.23;3.38;;;;;;;10.88;100.00;100371.06;5029614;28;20506;-76
2023/03/22 09:46:54;;;;;;;7.28;3.53;;;;;;;10.89;100.00;100390.44;5077804;28;20051;-77
2023/03/22 09:49:26;;;;;;;10.63;3.78;;;;;;;10.92;100.00;100375.44;5086723;28;20036;-77
2023/03/22 09:51:59;;;;;;;6.30;3.25;;;;;;;10.92;100.00;100367.53;5081060;28;20043;-77
2023/03/22 09:54:34;;;;;;;6.18;3.47;;;;;;;10.93;100.00;100371.94;5086156;28;20044;-76
2023/03/22 09:57:29;;;;;;;7.53;3.28;;;;;;;10.98;100.00;100384.22;5064014;28;20048;-77
2023/03/22 10:00:17;;;;;;;8.65;3.67;;;;;;;10.98;100.00;100369.25;5017728;28;22460;-77
2023/03/22 10:02:45;;;;;;;13.07;4.10;;;;;;;11.02;100.00;100376.28;5078931;28;20403;-76
2023/03/22 10:05:17;;;;;;;10.88;4.07;;;;;;;11.03;100.00;100361.34;5078383;28;20559;-76
2023/03/22 10:07:53;;;;;;;9.45;2.88;;;;;;;11.01;100.00;100371.88;5077385;28;20048;-77
2023/03/22 10:10:22;;;;;;;15.63;3.75;;;;;;;11.00;100.00;100366.63;5080175;28;20052;-76
2023/03/22 10:13:04;;;;;;;17.38;4.82;;;;;;;10.96;100.00;100370.16;5067606;28;20051;-76
2023/03/22 10:15:38;;;;;;;7.72;3.42;;;;;;;10.93;100.00;100360.53;5074221;28;20044;-76
2023/03/22 10:18:12;;;;;;;10.10;3.75;;;;;;;10.85;100.00;100371.13;5054572;28;20075;-75
2023/03/22 10:21:03;;;;;;;10.07;3.42;;;;;;;10.79;100.00;100376.41;5083155;28;20036;-77
2023/03/22 10:23:33;;;;;;;8.10;3.28;;;;;;;10.72;100.00;100382.59;5084113;28;20044;-77
2023/03/22 10:26:03;;;;;;;4.22;2.47;;;;;;;10.59;100.00;100371.25;5064449;28;20052;-77
2023/03/22 10:28:38;;;;;;;9.82;3.20;;;;;;;10.49;100.00;100375.69;5073265;28;20473;-77
2023/03/22 10:31:11;;;;;;;7.68;2.97;;;;;;;10.48;100.00;100375.69;5031022;28;20043;-77
2023/03/22 10:33:49;;;;;;;7.90;3.08;;;;;;;10.43;100.00;100380.94;5067081;28;20056;-77
2023/03/22 10:36:21;;;;;;;7.07;2.92;;;;;;;10.38;100.00;100377.47;5080893;28;20414;-77
2023/03/22 10:38:53;;;;;;;7.97;3.13;;;;;;;10.30;100.00;100395.00;5080735;28;20040;-77
2023/03/22 10:41:24;;;;;;;10.93;3.30;;;;;;;10.24;100.00;100384.50;5082597;28;20048;-77
2023/03/22 10:43:56;;;;;;;5.00;3.10;;;;;;;10.18;100.00;100368.72;5070403;28;20055;-77
2023/03/22 10:46:26;;;;;;;8.20;3.30;;;;;;;10.12;100.00;100383.66;5075265;28;20075;-77
2023/03/22 10:48:59;;;;;;;7.97;3.10;;;;;;;10.09;100.00;100382.78;5046043;28;20820;-76
2023/03/22 10:51:43;;;;;;;7.47;3.28;;;;;;;10.05;100.00;100384.53;5060376;28;20047;-77
2023/03/22 10:54:17;;;;;;;12.55;3.92;;;;;;;10.04;100.00;100395.97;5066214;28;20056;-77
2023/03/22 10:56:44;;;;;;;9.85;3.70;;;;;;;10.07;100.00;100385.41;5067085;28;20052;-77
2023/03/22 10:59:46;;;;;;;7.05;3.33;;;;;;;10.02;100.00;100388.94;5053223;28;20060;-77
2023/03/22 11:02:30;;;;;;;9.52;3.53;;;;;;;9.98;100.00;100397.72;5037376;28;20047;-76
2023/03/22 11:05:00;;;;;;;6.65;3.00;;;;;;;9.96;100.00;100392.44;5082985;28;20055;-77
2023/03/22 11:07:47;;;;;;;11.00;4.03;;;;;;;9.95;100.00;100388.09;5075629;28;20063;-77
2023/03/22 11:10:49;;;;;;;8.52;4.80;;;;;;;9.95;100.00;100393.34;5081383;28;20788;-77
2023/03/22 11:13:21;;;;;;;6.32;3.60;;;;;;;9.95;100.00;100388.09;5050420;28;20604;-77
2023/03/22 11:15:56;;;;;;;7.80;3.72;;;;;;;9.93;100.00;100387.22;5058039;28;20937;-75
2023/03/22 11:18:32;;;;;;;5.43;3.88;;;;;;;9.90;100.00;100390.69;5047655;28;20048;-77
2023/03/22 11:21:08;;;;;;;9.50;4.15;;;;;;;9.90;100.00;100390.69;5079701;28;20052;-77
2023/03/22 11:23:39;;;;;;;12.88;4.65;;;;;;;9.90;100.00;100398.59;5069022;28;20040;-76
2023/03/22 11:26:10;;;;;;;11.00;4.13;;;;;;;9.90;100.00;100397.72;5057783;28;20044;-77
2023/03/22 11:28:46;;;;;;;9.75;4.28;;;;;;;9.91;100.00;100396.88;5075718;28;20055;-77
2023/03/22 11:31:15;;;;;;;8.27;3.97;;;;;;;9.93;100.00;100397.72;5080202;28;20047;-77
2023/03/22 11:33:58;;;;;;;9.48;3.80;;;;;;;9.93;100.00;100393.34;5015224;28;20063;-78
2023/03/22 11:36:27;;;;;;;8.00;3.47;;;;;;;9.92;100.00;100393.34;5064150;28;20055;-78
2023/03/22 11:39:00;;;;;;;7.22;3.67;;;;;;;9.93;100.00;100392.47;5050717;28;20044;-75
2023/03/22 11:41:34;;;;;;;11.10;4.30;;;;;;;9.95;100.00;100399.47;5082381;28;20040;-77
2023/03/22 11:44:16;;;;;;;10.50;4.15;;;;;;;9.97;100.00;100394.22;5052762;28;20048;-75
2023/03/22 11:46:50;;;;;;;9.75;3.55;;;;;;;9.99;100.00;100376.66;5063267;28;20414;-75
2023/03/22 11:49:18;;;;;;;11.45;4.13;;;;;;;10.02;100.00;100378.41;5030352;28;20036;-77
2023/03/22 11:51:45;;;;;;;4.85;3.40;;;;;;;10.03;100.00;100370.50;5080859;28;20044;-76
2023/03/22 11:54:34;;;;;;;5.60;3.33;;;;;;;10.04;100.00;100371.41;5069913;28;20056;-76
2023/03/22 11:57:08;;;;;;;7.50;3.05;;;;;;;10.00;100.00;100367.91;5062521;28;20060;-76
2023/03/22 11:59:38;;;;;;;6.70;3.78;;;;;;;10.02;100.00;100368.78;5070082;28;20055;-76
2023/03/22 12:02:22;;;;;;;6.53;3.22;;;;;;;10.03;100.00;100372.28;5064253;28;20051;-75
2023/03/22 12:05:01;;;;;;;7.35;3.22;;;;;;;10.03;100.00;100385.44;5044621;28;20051;-77
2023/03/22 12:07:33;;;;;;;9.45;3.08;;;;;;;10.01;100.00;100377.53;5080150;28;20043;-76
2023/03/22 12:10:12;;;;;;;6.72;3.28;;;;;;;10.04;100.00;100381.94;5061305;28;20044;-77
2023/03/22 12:12:49;;;;;;;6.60;3.30;;;;;;;10.04;100.00;100381.94;5054482;28;20083;-77
2023/03/22 12:15:22;;;;;;;3.95;3.13;;;;;;;10.01;100.00;100393.31;5048658;28;20060;-76
2023/03/22 12:18:11;;;;;;;5.53;3.33;;;;;;;10.01;100.00;100387.19;5072152;28;20063;-77
2023/03/22 12:20:39;;;;;;;6.15;3.13;;;;;;;9.96;100.00;100397.72;5037406;28;20553;-77